createdAt,value
2023-02-09T00:01:16.339Z,4.68
2023-02-09T00:03:43.675Z,3.55
2023-02-09T00:06:14.505Z,4.57
2023-02-09T00:08:41.166Z,5.38
2023-02-09T00:11:09.206Z,4.85
2023-02-09T00:13:36.336Z,6.38
2023-02-09T00:16:03.092Z,6.68
2023-02-09T00:18:32.079Z,5.32
2023-02-09T00:21:00.146Z,5.70
2023-02-09T00:23:28.506Z,3.08
2023-02-09T00:25:55.454Z,4.57
2023-02-09T00:28:21.941Z,5.72
2023-02-09T00:30:49.981Z,7.35
2023-02-09T00:33:17.765Z,3.35
2023-02-09T00:35:44.351Z,4.43
2023-02-09T00:38:11.956Z,6.90
2023-02-09T00:40:39.412Z,4.43
2023-02-09T00:43:06.622Z,5.07
2023-02-09T00:45:33.588Z,4.32
2023-02-09T00:48:00.387Z,9.65
2023-02-09T00:50:28.711Z,5.22
2023-02-09T00:52:55.337Z,4.75
2023-02-09T00:55:21.978Z,5.45
2023-02-09T00:57:48.479Z,6.40
2023-02-09T01:00:15.728Z,5.90
2023-02-09T01:02:42.556Z,7.13
2023-02-09T01:05:09.086Z,2.42
2023-02-09T01:07:36.081Z,3.38
2023-02-09T01:10:03.454Z,3.28
2023-02-09T01:12:30.981Z,4.93
2023-02-09T01:14:57.455Z,2.85
2023-02-09T01:17:25.686Z,4.45
2023-02-09T01:19:53.355Z,4.65
2023-02-09T01:22:20.422Z,5.03
2023-02-09T01:24:48.516Z,6.07
2023-02-09T01:27:16.613Z,6.53
2023-02-09T01:29:43.095Z,4.28
2023-02-09T01:32:10.954Z,4.45
2023-02-09T01:34:37.503Z,6.32
2023-02-09T01:37:04.322Z,6.88
2023-02-09T01:39:30.765Z,3.67
2023-02-09T01:41:57.284Z,3.47
2023-02-09T01:44:23.623Z,6.45
2023-02-09T01:46:50.078Z,5.78
2023-02-09T01:49:27.954Z,4.60
2023-02-09T01:51:57.636Z,5.05
2023-02-09T01:54:42.612Z,3.25
2023-02-09T01:57:16.834Z,3.65
2023-02-09T01:59:46.640Z,3.80
2023-02-09T02:02:14.545Z,2.92
2023-02-09T02:04:42.647Z,3.58
2023-02-09T02:07:35.197Z,7.38
2023-02-09T02:10:02.778Z,3.85
2023-02-09T02:12:30.434Z,6.45
2023-02-09T02:14:56.991Z,4.25
2023-02-09T02:17:39.264Z,4.25
2023-02-09T02:20:20.496Z,7.18
2023-02-09T02:22:59.087Z,2.03
2023-02-09T02:25:42.253Z,6.55
2023-02-09T02:28:35.009Z,4.85
2023-02-09T02:31:21.071Z,6.93
2023-02-09T02:34:09.025Z,7.25
2023-02-09T02:36:42.370Z,5.78
2023-02-09T02:39:22.584Z,8.05
2023-02-09T02:42:40.749Z,6.53
2023-02-09T02:45:27.923Z,8.52
2023-02-09T02:48:05.424Z,4.60
2023-02-09T02:50:35.345Z,5.47
2023-02-09T02:53:06.335Z,6.20
2023-02-09T02:55:35.738Z,5.07
2023-02-09T02:58:07.573Z,5.43
2023-02-09T03:00:39.480Z,7.40
2023-02-09T03:03:10.318Z,6.30
2023-02-09T03:05:37.881Z,5.65
2023-02-09T03:08:04.548Z,5.18
2023-02-09T03:10:37.181Z,4.82
2023-02-09T03:13:27.911Z,4.32
2023-02-09T03:16:20.485Z,4.90
2023-02-09T03:19:02.800Z,4.63
2023-02-09T03:21:47.885Z,4.47
2023-02-09T03:24:52.344Z,4.97
2023-02-09T03:27:39.120Z,9.75
2023-02-09T03:30:08.002Z,4.78
2023-02-09T03:32:40.705Z,6.80
2023-02-09T03:35:09.548Z,5.43
2023-02-09T03:37:35.934Z,7.47
2023-02-09T03:40:02.447Z,3.97
2023-02-09T03:42:28.922Z,11.70
2023-02-09T03:44:55.345Z,6.38
2023-02-09T03:47:21.813Z,7.88
2023-02-09T03:49:48.286Z,5.47
2023-02-09T03:52:15.847Z,11.40
2023-02-09T03:54:43.072Z,4.28
2023-02-09T03:57:10.311Z,5.28
2023-02-09T03:59:40.396Z,5.35
2023-02-09T04:02:08.696Z,6.70
2023-02-09T04:04:35.880Z,9.02
2023-02-09T04:07:03.507Z,7.57
2023-02-09T04:09:30.153Z,5.10
2023-02-09T04:11:56.816Z,7.22
2023-02-09T04:14:23.701Z,8.25
2023-02-09T04:16:50.192Z,5.80
2023-02-09T04:19:16.909Z,4.80
2023-02-09T04:21:43.400Z,7.97
2023-02-09T04:24:09.910Z,11.65
2023-02-09T04:26:36.384Z,6.05
2023-02-09T04:29:03.027Z,4.50
2023-02-09T04:31:30.477Z,5.47
2023-02-09T04:33:56.890Z,4.00
2023-02-09T04:36:23.497Z,4.68
2023-02-09T04:38:50.570Z,4.57
2023-02-09T04:41:17.105Z,5.82
2023-02-09T04:43:43.636Z,8.20
2023-02-09T04:46:15.432Z,4.95
2023-02-09T04:48:42.304Z,6.20
2023-02-09T04:51:08.956Z,4.95
2023-02-09T04:53:35.396Z,5.35
2023-02-09T04:56:01.865Z,10.27
2023-02-09T04:58:46.729Z,4.20
2023-02-09T05:01:19.342Z,6.15
2023-02-09T05:03:45.831Z,6.80
2023-02-09T05:06:12.301Z,4.97
2023-02-09T05:08:38.721Z,5.68
2023-02-09T05:11:05.353Z,4.05
2023-02-09T05:13:31.840Z,6.00
2023-02-09T05:15:58.287Z,6.03
2023-02-09T05:18:26.098Z,6.82
2023-02-09T05:20:52.599Z,4.07
2023-02-09T05:23:19.165Z,5.47
2023-02-09T05:25:46.075Z,4.95
2023-02-09T05:28:12.821Z,6.90
2023-02-09T05:30:39.449Z,7.78
2023-02-09T05:33:05.991Z,5.47
2023-02-09T05:35:32.445Z,7.15
2023-02-09T05:37:58.914Z,7.93
2023-02-09T05:40:25.534Z,7.45
2023-02-09T05:42:52.009Z,5.03
2023-02-09T05:45:18.498Z,8.48
2023-02-09T05:47:45.509Z,7.25
2023-02-09T05:50:11.927Z,4.60
2023-02-09T05:52:38.317Z,6.55
2023-02-09T05:55:04.933Z,5.97
2023-02-09T05:57:31.328Z,7.10
2023-02-09T05:59:57.774Z,6.22
2023-02-09T06:02:24.253Z,5.72
2023-02-09T06:04:51.097Z,7.57
2023-02-09T06:07:17.601Z,7.03
2023-02-09T06:09:44.002Z,6.30
2023-02-09T06:12:10.442Z,5.80
2023-02-09T06:14:36.883Z,6.35
2023-02-09T06:17:03.408Z,7.85
2023-02-09T06:19:30.564Z,6.35
2023-02-09T06:21:56.942Z,3.45
2023-02-09T06:24:23.381Z,5.00
2023-02-09T06:26:49.824Z,6.45
2023-02-09T06:29:16.287Z,5.78
2023-02-09T06:31:42.843Z,5.53
2023-02-09T06:34:09.698Z,5.50
2023-02-09T06:36:36.390Z,9.73
2023-02-09T06:39:07.228Z,6.88
2023-02-09T06:41:34.028Z,4.53
2023-02-09T06:44:00.413Z,8.20
2023-02-09T06:46:28.469Z,5.20
2023-02-09T06:48:55.329Z,6.97
2023-02-09T06:51:22.129Z,4.32
2023-02-09T06:53:48.676Z,4.30
2023-02-09T06:56:15.357Z,6.97
2023-02-09T06:58:42.275Z,3.90
2023-02-09T07:01:15.499Z,7.43
2023-02-09T07:03:43.093Z,7.88
2023-02-09T07:06:18.258Z,5.25
2023-02-09T07:08:46.132Z,5.47
2023-02-09T07:11:15.420Z,6.55
2023-02-09T07:13:42.282Z,5.88
2023-02-09T07:16:10.778Z,4.82
2023-02-09T07:18:37.688Z,6.75
2023-02-09T07:21:07.243Z,7.35
2023-02-09T07:23:34.259Z,6.68
2023-02-09T07:26:06.113Z,7.07
2023-02-09T07:28:34.813Z,6.22
2023-02-09T07:31:04.488Z,5.40
2023-02-09T07:33:31.374Z,7.47
2023-02-09T07:35:57.982Z,7.07
2023-02-09T07:38:24.624Z,19.38
2023-02-09T07:40:51.236Z,7.80
2023-02-09T07:43:17.636Z,6.63
2023-02-09T07:45:44.402Z,7.60
2023-02-09T07:48:11.268Z,7.18
2023-02-09T07:50:38.036Z,5.25
2023-02-09T07:53:04.445Z,8.95
2023-02-09T07:55:31.013Z,5.43
2023-02-09T07:57:57.444Z,7.43
2023-02-09T08:00:24.349Z,7.05
2023-02-09T08:02:50.928Z,8.55
2023-02-09T08:05:24.770Z,6.32
2023-02-09T08:07:51.357Z,7.05
2023-02-09T08:10:18.777Z,7.03
2023-02-09T08:13:00.695Z,6.75
2023-02-09T08:15:50.639Z,10.43
2023-02-09T08:18:24.182Z,8.63
2023-02-09T08:20:52.956Z,6.35
2023-02-09T08:23:24.540Z,9.20
2023-02-09T08:25:51.733Z,6.38
2023-02-09T08:28:19.366Z,5.72
2023-02-09T08:30:46.957Z,9.25
2023-02-09T08:33:13.407Z,7.63
2023-02-09T08:35:40.255Z,6.95
2023-02-09T08:38:06.778Z,8.35
2023-02-09T08:40:37.043Z,8.57
2023-02-09T08:43:03.526Z,7.72
2023-02-09T08:45:30.079Z,7.10
2023-02-09T08:47:56.818Z,8.30
2023-02-09T08:50:23.393Z,6.82
2023-02-09T08:52:49.929Z,5.68
2023-02-09T08:55:16.350Z,5.60
2023-02-09T08:57:44.680Z,9.05
2023-02-09T09:00:12.277Z,6.65
2023-02-09T09:02:38.727Z,7.15
2023-02-09T09:05:05.513Z,11.57
2023-02-09T09:07:31.995Z,8.02
2023-02-09T09:09:58.518Z,10.18
2023-02-09T09:12:24.971Z,11.07
2023-02-09T09:14:51.429Z,6.65
2023-02-09T09:17:17.865Z,8.05
2023-02-09T09:19:44.357Z,6.53
2023-02-09T09:22:10.824Z,5.90
2023-02-09T09:24:40.585Z,8.70
2023-02-09T09:27:08.996Z,7.93
2023-02-09T09:29:36.776Z,7.93
2023-02-09T09:32:03.515Z,9.02
2023-02-09T09:34:30.185Z,7.07
2023-02-09T09:36:56.831Z,7.43
2023-02-09T09:39:24.328Z,8.32
2023-02-09T09:41:54.998Z,12.48
2023-02-09T09:44:40.840Z,9.50
2023-02-09T09:47:12.692Z,7.53
2023-02-09T09:49:39.306Z,9.60
2023-02-09T09:52:16.175Z,7.82
2023-02-09T09:54:44.006Z,11.35
2023-02-09T09:57:24.054Z,8.32
2023-02-09T09:59:52.009Z,7.00
2023-02-09T10:02:33.191Z,12.18
2023-02-09T10:05:11.158Z,9.88
2023-02-09T10:07:40.170Z,8.73
2023-02-09T10:10:19.427Z,9.05
2023-02-09T10:12:49.258Z,10.95
2023-02-09T10:15:25.579Z,13.40
2023-02-09T10:17:52.096Z,7.85
2023-02-09T10:20:38.019Z,6.93
2023-02-09T10:23:04.410Z,8.85
2023-02-09T10:25:51.515Z,16.23
2023-02-09T10:28:20.397Z,11.25
2023-02-09T10:30:47.664Z,13.63
2023-02-09T10:33:15.597Z,9.80
2023-02-09T10:35:46.754Z,10.57
2023-02-09T10:38:19.680Z,9.70
2023-02-09T10:40:49.774Z,9.15
2023-02-09T10:43:21.584Z,8.50
2023-02-09T10:45:54.390Z,8.50
2023-02-09T10:48:21.932Z,14.05
2023-02-09T10:51:05.133Z,10.43
2023-02-09T10:53:35.272Z,8.75
2023-02-09T10:56:23.510Z,7.20
2023-02-09T10:58:53.512Z,9.70
2023-02-09T11:01:24.354Z,14.15
2023-02-09T11:03:59.912Z,9.45
2023-02-09T11:06:26.751Z,11.38
2023-02-09T11:09:16.481Z,10.10
2023-02-09T11:11:43.260Z,10.95
2023-02-09T11:14:12.709Z,13.07
2023-02-09T11:16:53.863Z,12.43
2023-02-09T11:19:22.445Z,11.38
2023-02-09T11:22:12.260Z,12.60
2023-02-09T11:25:02.167Z,13.10
2023-02-09T11:27:45.997Z,11.52
2023-02-09T11:33:00.517Z,10.98
2023-02-09T11:35:39.633Z,10.15
2023-02-09T11:38:13.539Z,14.13
2023-02-09T11:40:44.939Z,11.77
2023-02-09T11:43:18.703Z,13.15
2023-02-09T11:45:52.223Z,11.48
2023-02-09T11:48:27.813Z,10.95
2023-02-09T11:51:06.327Z,12.18
2023-02-09T11:53:51.132Z,12.23
2023-02-09T11:56:22.973Z,14.80
2023-02-09T11:59:00.657Z,14.95
2023-02-09T12:01:45.286Z,11.18
2023-02-09T12:04:17.832Z,12.70
2023-02-09T12:06:57.667Z,11.20
2023-02-09T12:09:50.574Z,14.00
2023-02-09T12:12:25.829Z,12.48
2023-02-09T12:14:56.237Z,12.07
2023-02-09T12:17:31.723Z,13.30
2023-02-09T12:20:00.552Z,11.55
2023-02-09T12:22:32.948Z,13.32
2023-02-09T12:25:11.735Z,19.55
2023-02-09T12:28:01.252Z,15.27
2023-02-09T12:30:39.944Z,13.88
2023-02-09T12:33:15.540Z,10.80
2023-02-09T12:35:42.926Z,9.63
2023-02-09T12:38:19.527Z,13.63
2023-02-09T12:41:03.009Z,15.38
2023-02-09T12:43:31.754Z,15.52
2023-02-09T12:46:22.974Z,14.98
2023-02-09T12:49:01.355Z,17.73
2023-02-09T12:51:49.436Z,17.90
2023-02-09T12:54:41.819Z,14.13
2023-02-09T12:57:17.339Z,14.10
2023-02-09T12:59:49.792Z,12.73
2023-02-09T13:02:48.393Z,15.63
2023-02-09T13:05:37.988Z,14.38
2023-02-09T13:08:13.365Z,11.98
2023-02-09T13:10:46.617Z,19.30
2023-02-09T13:13:13.017Z,16.40
2023-02-09T13:15:54.466Z,14.30
2023-02-09T13:18:52.037Z,13.75
2023-02-09T13:21:37.293Z,13.60
2023-02-09T13:24:08.164Z,17.50
2023-02-09T13:26:37.484Z,15.82
2023-02-09T13:29:21.227Z,14.45
2023-02-09T13:31:57.995Z,17.38
2023-02-09T13:34:39.494Z,19.60
2023-02-09T13:37:32.169Z,18.15
2023-02-09T13:40:13.921Z,14.68
2023-02-09T13:43:10.978Z,18.45
2023-02-09T13:45:50.127Z,18.13
2023-02-09T13:48:29.646Z,12.75
2023-02-09T13:50:58.838Z,15.98
2023-02-09T13:53:27.442Z,18.23
2023-02-09T13:55:55.990Z,14.18
2023-02-09T13:58:30.099Z,17.05
2023-02-09T14:01:04.250Z,17.13
2023-02-09T14:03:46.953Z,18.40
2023-02-09T14:06:48.893Z,16.67
2023-02-09T14:09:24.021Z,16.90
2023-02-09T14:11:52.264Z,14.55
2023-02-09T14:14:57.203Z,15.77
2023-02-09T14:17:29.722Z,15.43
2023-02-09T14:19:58.547Z,17.90
2023-02-09T14:22:39.888Z,14.45
2023-02-09T14:25:27.522Z,14.20
2023-02-09T14:27:55.367Z,16.10
2023-02-09T14:30:25.625Z,17.00
2023-02-09T14:32:57.365Z,17.20
2023-02-09T14:35:25.830Z,18.60
2023-02-09T14:37:54.639Z,14.43
2023-02-09T14:40:27.136Z,14.60
2023-02-09T14:43:01.296Z,19.70
2023-02-09T14:45:49.483Z,14.02
2023-02-09T14:48:20.585Z,16.15
2023-02-09T14:50:49.417Z,16.67
2023-02-09T14:53:17.694Z,17.88
2023-02-09T14:55:44.780Z,16.80
2023-02-09T14:58:28.772Z,18.60
2023-02-09T15:00:58.315Z,19.33
2023-02-09T15:03:24.941Z,18.30
2023-02-09T15:05:55.501Z,21.20
2023-02-09T15:08:25.502Z,20.27
2023-02-09T15:10:56.008Z,17.63
2023-02-09T15:13:23.970Z,21.13
2023-02-09T15:15:50.712Z,16.27
2023-02-09T15:18:26.025Z,19.70
2023-02-09T15:20:53.046Z,22.88
2023-02-09T15:23:19.548Z,22.77
2023-02-09T15:25:46.461Z,19.42
2023-02-09T15:28:28.282Z,17.83
2023-02-09T15:30:56.601Z,22.02
2023-02-09T15:33:23.374Z,18.38
2023-02-09T15:35:50.208Z,17.60
2023-02-09T15:38:18.249Z,21.88
2023-02-09T15:41:05.939Z,17.40
2023-02-09T15:43:50.798Z,16.25
2023-02-09T15:46:36.367Z,19.38
2023-02-09T15:49:03.683Z,17.58
2023-02-09T15:51:33.914Z,15.18
2023-02-09T15:54:03.096Z,20.58
2023-02-09T15:56:29.775Z,17.63
2023-02-09T15:59:03.334Z,22.15
2023-02-09T16:01:36.360Z,20.88
2023-02-09T16:04:13.969Z,18.95
2023-02-09T16:06:53.081Z,25.23
2023-02-09T16:09:23.419Z,20.77
2023-02-09T16:11:49.926Z,18.15
2023-02-09T16:14:20.256Z,19.17
2023-02-09T16:16:47.126Z,21.60
2023-02-09T16:19:14.143Z,20.05
2023-02-09T16:21:43.940Z,25.80
2023-02-09T16:24:21.490Z,20.80
2023-02-09T16:26:48.142Z,20.35
2023-02-09T16:29:15.309Z,20.40
2023-02-09T16:31:41.801Z,17.25
2023-02-09T16:34:09.374Z,24.90
2023-02-09T16:36:35.917Z,17.80
2023-02-09T16:39:03.505Z,18.75
2023-02-09T16:41:49.638Z,20.40
2023-02-09T16:44:24.434Z,18.75
2023-02-09T16:46:53.502Z,19.20
2023-02-09T16:49:36.396Z,29.13
2023-02-09T16:52:11.040Z,19.08
2023-02-09T16:54:42.503Z,18.92
2023-02-09T16:57:14.503Z,22.20
2023-02-09T16:59:40.900Z,21.15
2023-02-09T17:02:30.769Z,25.08
2023-02-09T17:04:58.085Z,20.58
2023-02-09T17:07:30.300Z,19.20
2023-02-09T17:09:57.360Z,19.50
2023-02-09T17:12:24.021Z,20.73
2023-02-09T17:14:50.437Z,25.45
2023-02-09T17:17:19.458Z,18.45
2023-02-09T17:19:48.129Z,17.83
2023-02-09T17:22:15.345Z,25.48
2023-02-09T17:24:41.757Z,23.73
2023-02-09T17:27:09.647Z,21.02
2023-02-09T17:29:36.129Z,25.23
2023-02-09T17:32:02.864Z,19.08
2023-02-09T17:34:29.406Z,24.08
2023-02-09T17:36:56.609Z,23.88
2023-02-09T17:39:23.078Z,25.73
2023-02-09T17:41:49.989Z,28.23
2023-02-09T17:44:29.065Z,23.67
2023-02-09T17:47:05.893Z,23.08
2023-02-09T17:49:33.152Z,25.38
2023-02-09T17:51:59.640Z,22.17
2023-02-09T17:54:27.679Z,19.02
2023-02-09T17:56:54.135Z,18.38
2023-02-09T17:59:21.209Z,20.67
2023-02-09T18:01:55.085Z,22.98
2023-02-09T18:04:28.534Z,22.50
2023-02-09T18:06:57.543Z,23.52
2023-02-09T18:09:24.174Z,22.40
2023-02-09T18:11:50.512Z,19.80
2023-02-09T18:14:17.824Z,20.75
2023-02-09T18:16:45.003Z,26.13
2023-02-09T18:19:11.881Z,25.38
2023-02-09T18:21:39.705Z,21.52
2023-02-09T18:24:06.483Z,19.73
2023-02-09T18:26:34.423Z,23.20
2023-02-09T18:29:00.805Z,20.85
2023-02-09T18:31:27.307Z,24.55
2023-02-09T18:33:54.045Z,20.52
2023-02-09T18:36:20.753Z,23.15
2023-02-09T18:38:48.049Z,22.23
2023-02-09T18:41:14.513Z,23.90
2023-02-09T18:43:40.933Z,22.48
2023-02-09T18:46:07.633Z,27.63
2023-02-09T18:48:34.223Z,20.75
2023-02-09T18:51:00.622Z,26.75
2023-02-09T18:53:27.018Z,26.92
2023-02-09T18:55:53.610Z,21.60
2023-02-09T18:58:20.152Z,24.98
2023-02-09T19:00:46.860Z,23.45
2023-02-09T19:03:13.989Z,23.10
2023-02-09T19:05:41.037Z,25.70
2023-02-09T19:08:07.702Z,23.63
2023-02-09T19:10:35.861Z,23.35
2023-02-09T19:13:04.252Z,15.57
2023-02-09T19:15:32.992Z,18.63
2023-02-09T19:17:59.992Z,18.73
2023-02-09T19:20:29.288Z,25.10
2023-02-09T19:22:56.088Z,25.90
2023-02-09T19:25:25.891Z,29.60
2023-02-09T19:27:53.302Z,24.58
2023-02-09T19:30:24.620Z,20.40
2023-02-09T19:32:52.386Z,25.05
2023-02-09T19:35:22.231Z,20.10
2023-02-09T19:37:56.551Z,22.63
2023-02-09T19:40:35.215Z,21.23
2023-02-09T19:43:03.372Z,19.90
2023-02-09T19:45:36.453Z,22.92
2023-02-09T19:48:05.019Z,21.65
2023-02-09T19:50:31.802Z,21.10
2023-02-09T19:52:58.259Z,22.45
2023-02-09T19:55:24.852Z,21.42
2023-02-09T19:57:51.273Z,21.20
2023-02-09T20:00:18.148Z,21.88
2023-02-09T20:02:45.828Z,20.27
2023-02-09T20:05:12.906Z,23.38
2023-02-09T20:07:39.466Z,19.33
2023-02-09T20:10:06.693Z,22.02
2023-02-09T20:12:33.247Z,18.55
2023-02-09T20:14:59.686Z,18.10
2023-02-09T20:17:27.742Z,20.58
2023-02-09T20:19:54.197Z,22.92
2023-02-09T20:22:20.776Z,21.95
2023-02-09T20:24:47.356Z,25.90
2023-02-09T20:27:13.893Z,20.65
2023-02-09T20:29:40.312Z,20.55
2023-02-09T20:32:07.074Z,25.63
2023-02-09T20:34:33.492Z,23.10
2023-02-09T20:36:59.961Z,24.65
2023-02-09T20:39:26.417Z,21.80
2023-02-09T20:42:16.300Z,22.48
2023-02-09T20:45:01.763Z,22.15
2023-02-09T20:47:30.038Z,16.45
2023-02-09T20:49:59.639Z,23.90
2023-02-09T20:52:28.148Z,21.13
2023-02-09T20:54:55.187Z,18.35
2023-02-09T20:57:23.903Z,18.08
2023-02-09T20:59:50.372Z,17.00
2023-02-09T21:02:16.799Z,17.08
2023-02-09T21:04:43.247Z,18.33
2023-02-09T21:07:09.647Z,20.33
2023-02-09T21:09:36.237Z,16.42
2023-02-09T21:12:02.628Z,17.15
2023-02-09T21:14:41.299Z,25.05
2023-02-09T21:17:08.408Z,19.27
2023-02-09T21:19:34.905Z,18.83
2023-02-09T21:22:01.350Z,19.92
2023-02-09T21:24:27.834Z,18.48
2023-02-09T21:26:54.281Z,16.63
2023-02-09T21:29:20.900Z,18.10
2023-02-09T21:31:47.539Z,20.42
2023-02-09T21:34:16.141Z,13.80
2023-02-09T21:36:43.243Z,15.82
2023-02-09T21:39:09.661Z,19.23
2023-02-09T21:41:54.759Z,19.00
2023-02-09T21:44:21.253Z,21.30
2023-02-09T21:46:49.226Z,14.05
2023-02-09T21:49:15.952Z,14.65
2023-02-09T21:51:42.541Z,14.40
2023-02-09T21:54:15.651Z,10.73
2023-02-09T21:56:42.729Z,27.52
2023-02-09T21:59:09.763Z,14.40
2023-02-09T22:01:36.985Z,12.38
2023-02-09T22:04:04.216Z,32.92
2023-02-09T22:06:31.483Z,18.73
2023-02-09T22:09:00.318Z,14.13
2023-02-09T22:11:26.872Z,11.35
2023-02-09T22:13:53.319Z,17.40
2023-02-09T22:16:22.073Z,16.88
2023-02-09T22:18:50.197Z,10.88
2023-02-09T22:21:17.401Z,12.32
2023-02-09T22:23:43.861Z,12.80
2023-02-09T22:26:13.669Z,13.88
2023-02-09T22:28:41.143Z,13.88
2023-02-09T22:31:10.499Z,10.57
2023-02-09T22:33:36.993Z,12.35
2023-02-09T22:36:09.118Z,11.45
2023-02-09T22:38:36.423Z,12.57
2023-02-09T22:41:07.937Z,12.90
2023-02-09T22:43:34.792Z,17.38
2023-02-09T22:46:01.274Z,13.20
2023-02-09T22:48:27.969Z,18.13
2023-02-09T22:50:54.390Z,12.40
2023-02-09T22:53:20.870Z,11.02
2023-02-09T22:55:48.357Z,15.80
2023-02-09T22:58:15.094Z,14.95
2023-02-09T23:00:41.670Z,10.43
2023-02-09T23:03:08.083Z,14.95
2023-02-09T23:05:34.542Z,13.25
2023-02-09T23:08:00.997Z,14.95
2023-02-09T23:10:27.407Z,14.55
2023-02-09T23:12:53.846Z,15.48
2023-02-09T23:15:20.529Z,12.43
2023-02-09T23:17:47.015Z,14.98
2023-02-09T23:20:13.417Z,15.73
2023-02-09T23:22:40.009Z,14.50
2023-02-09T23:25:06.890Z,13.07
2023-02-09T23:27:33.331Z,9.70
2023-02-09T23:29:59.808Z,11.15
2023-02-09T23:32:26.197Z,14.57
2023-02-09T23:34:52.614Z,11.25
2023-02-09T23:37:36.328Z,12.23
2023-02-09T23:40:04.020Z,10.77
2023-02-09T23:42:30.406Z,11.02
2023-02-09T23:44:56.979Z,13.10
2023-02-09T23:47:23.376Z,12.55
2023-02-09T23:49:50.537Z,13.30
2023-02-09T23:52:16.962Z,15.02
2023-02-09T23:54:43.439Z,13.43
2023-02-09T23:57:09.942Z,13.70
2023-02-09T23:59:36.383Z,11.20
